Horbury, United Kingdom
Current Conditions -  °F | °C
As of 7:20 AM on Friday 31 Oct 2014 (Local Time) from EGNM Reporting Station
Broken Clouds Broken Clouds  
Wind Chill: 55°   Ceiling: 1800
Heat Index: 55°   Visibility: 4mi
Dew Point: 55°   Wind: 8mph
Humidity: 100%   Direction: 170°S
Pressure: 29.91"   Gusts: NA
Location:  53.66°N, 1.56°W
Report Text: EGNM 310720Z 17007KT 6000 FEW010 BKN018 13/13 Q1013
Loading
Personal Weather Stations






























Interactive Weather Map New forecast layout! Learn more

10-Day Weather Forecast

Advertisements
Track Severe Weather on mobile